createdAt,value
2022-11-02T00:00:42.594Z,72.90
2022-11-02T00:03:11.236Z,72.13
2022-11-02T00:05:41.634Z,73.80
2022-11-02T00:08:10.817Z,64.87
2022-11-02T00:10:39.547Z,72.87
2022-11-02T00:13:11.428Z,66.50
2022-11-02T00:15:40.147Z,68.83
2022-11-02T00:18:12.828Z,62.93
2022-11-02T00:20:44.564Z,65.43
2022-11-02T00:23:14.500Z,65.57
2022-11-02T00:25:45.305Z,64.73
2022-11-02T00:28:15.088Z,67.90
2022-11-02T00:30:44.123Z,63.43
2022-11-02T00:33:12.941Z,60.10
2022-11-02T00:35:45.339Z,62.77
2022-11-02T00:38:14.053Z,62.10
2022-11-02T00:40:42.694Z,59.10
2022-11-02T00:43:11.327Z,63.77
2022-11-02T00:45:40.214Z,61.30
2022-11-02T00:48:08.816Z,64.87
2022-11-02T00:50:40.573Z,60.03
2022-11-02T00:53:10.569Z,59.70
2022-11-02T00:55:39.537Z,58.40
2022-11-02T00:58:08.342Z,64.77
2022-11-02T01:00:37.229Z,67.20
2022-11-02T01:03:05.961Z,67.83
2022-11-02T01:05:34.555Z,68.03
2022-11-02T01:08:03.308Z,63.80
2022-11-02T01:10:33.708Z,59.67
2022-11-02T01:13:03.107Z,61.30
2022-11-02T01:15:31.764Z,62.00
2022-11-02T01:18:00.467Z,58.50
2022-11-02T01:20:29.155Z,59.97
2022-11-02T01:22:59.807Z,62.03
2022-11-02T01:25:28.419Z,61.17
2022-11-02T01:27:58.483Z,65.20
2022-11-02T01:30:27.041Z,62.73
2022-11-02T01:32:55.620Z,62.67
2022-11-02T01:35:24.305Z,57.90
2022-11-02T01:37:52.862Z,61.10
2022-11-02T01:40:21.687Z,63.10
2022-11-02T01:42:50.323Z,58.57
2022-11-02T01:45:20.419Z,58.33
2022-11-02T01:47:50.723Z,59.13
2022-11-02T01:50:22.087Z,59.17
2022-11-02T01:52:50.941Z,60.97
2022-11-02T01:55:22.592Z,64.97
2022-11-02T01:57:57.243Z,59.23
2022-11-02T02:00:27.512Z,59.30
2022-11-02T02:03:01.749Z,60.80
2022-11-02T02:05:34.540Z,57.70
2022-11-02T02:08:06.284Z,62.13
2022-11-02T02:10:35.631Z,58.70
2022-11-02T02:13:06.517Z,67.83
2022-11-02T02:15:43.663Z,62.77
2022-11-02T02:18:18.166Z,63.67
2022-11-02T02:21:11.014Z,65.87
2022-11-02T02:24:27.765Z,62.13
2022-11-02T02:27:14.821Z,66.80
2022-11-02T02:29:59.967Z,62.33
2022-11-02T02:32:40.899Z,65.63
2022-11-02T02:35:19.562Z,62.27
2022-11-02T02:37:54.983Z,60.97
2022-11-02T02:40:31.391Z,61.73
2022-11-02T02:43:08.196Z,66.93
2022-11-02T02:45:41.738Z,63.50
2022-11-02T02:48:16.661Z,68.93
2022-11-02T02:50:50.185Z,63.17
2022-11-02T02:53:23.410Z,65.93
2022-11-02T02:55:53.265Z,64.47
2022-11-02T02:58:27.047Z,64.30
2022-11-02T03:00:58.224Z,65.77
2022-11-02T03:03:28.968Z,68.13
2022-11-02T03:06:05.030Z,68.23
2022-11-02T03:08:37.277Z,66.30
2022-11-02T03:11:13.695Z,68.23
2022-11-02T03:14:07.736Z,69.80
2022-11-02T03:17:02.672Z,71.03
2022-11-02T03:19:40.753Z,73.13
2022-11-02T03:22:18.077Z,71.37
2022-11-02T03:24:53.461Z,73.80
2022-11-02T03:27:26.564Z,75.03
2022-11-02T03:30:04.783Z,72.30
2022-11-02T03:32:39.409Z,74.63
2022-11-02T03:35:17.512Z,75.53
2022-11-02T03:37:51.490Z,82.00
2022-11-02T03:40:23.712Z,75.13
2022-11-02T03:42:54.592Z,78.00
2022-11-02T03:45:25.889Z,79.73
2022-11-02T03:48:01.534Z,79.93
2022-11-02T03:50:30.915Z,83.03
2022-11-02T03:53:06.150Z,86.03
2022-11-02T03:55:37.758Z,80.07
2022-11-02T03:58:06.621Z,80.30
2022-11-02T04:00:37.108Z,82.80
2022-11-02T04:03:08.777Z,79.27
2022-11-02T04:05:42.569Z,80.57
2022-11-02T04:08:24.561Z,83.27
2022-11-02T04:11:11.434Z,81.80
2022-11-02T04:13:57.813Z,80.27
2022-11-02T04:16:28.299Z,81.03
2022-11-02T04:19:16.108Z,82.60
2022-11-02T04:22:05.302Z,75.93
2022-11-02T04:24:51.732Z,82.37
2022-11-02T04:27:21.301Z,83.77
2022-11-02T04:29:50.296Z,82.13
2022-11-02T04:32:39.199Z,89.60
2022-11-02T04:35:10.152Z,77.63
2022-11-02T04:38:00.011Z,80.63
2022-11-02T04:40:29.415Z,78.40
2022-11-02T04:42:57.989Z,82.97
2022-11-02T04:45:26.639Z,80.47
2022-11-02T04:48:00.513Z,84.20
2022-11-02T04:50:31.153Z,82.63
2022-11-02T04:53:00.642Z,89.00
2022-11-02T04:55:29.968Z,88.47
2022-11-02T04:57:58.561Z,88.70
2022-11-02T05:00:27.283Z,92.67
2022-11-02T05:02:55.977Z,95.03
2022-11-02T05:05:24.995Z,89.23
2022-11-02T05:07:55.146Z,91.30
2022-11-02T05:10:23.899Z,97.93
2022-11-02T05:12:58.900Z,97.00
2022-11-02T05:15:27.831Z,103.70
2022-11-02T05:17:56.487Z,101.53
2022-11-02T05:20:25.134Z,100.33
2022-11-02T05:22:55.186Z,103.97
2022-11-02T05:25:23.988Z,107.10
2022-11-02T05:27:52.918Z,108.67
2022-11-02T05:30:21.481Z,101.77
2022-11-02T05:32:50.060Z,109.70
2022-11-02T05:35:18.736Z,114.87
2022-11-02T05:37:47.394Z,107.23
2022-11-02T05:40:17.825Z,109.15
2022-11-02T05:42:46.567Z,108.03
2022-11-02T05:45:16.548Z,107.63
2022-11-02T05:47:47.901Z,98.55
2022-11-02T05:50:16.705Z,103.33
2022-11-02T05:52:45.400Z,119.97
2022-11-02T05:55:14.374Z,124.63
2022-11-02T05:57:44.379Z,127.20
2022-11-02T06:00:14.272Z,122.00
2022-11-02T06:02:42.984Z,123.77
2022-11-02T06:05:11.956Z,110.68
2022-11-02T06:07:43.665Z,100.40
2022-11-02T06:10:12.428Z,120.97
2022-11-02T06:12:41.015Z,122.00
2022-11-02T06:15:12.204Z,118.40
2022-11-02T06:17:41.449Z,143.00
2022-11-02T06:20:11.235Z,98.07
2022-11-02T06:22:43.554Z,103.97
2022-11-02T06:25:13.162Z,107.80
2022-11-02T06:27:45.908Z,118.60
2022-11-02T06:30:16.647Z,114.73
2022-11-02T06:32:48.939Z,100.43
2022-11-02T06:35:18.524Z,105.33
2022-11-02T06:37:47.885Z,105.07
2022-11-02T06:40:19.272Z,104.73
2022-11-02T06:43:10.831Z,94.97
2022-11-02T06:45:40.076Z,86.90
2022-11-02T06:48:08.990Z,92.30
2022-11-02T06:50:37.889Z,94.00
2022-11-02T06:53:06.746Z,101.33
2022-11-02T06:55:35.614Z,104.87
2022-11-02T06:58:04.430Z,103.23
2022-11-02T07:00:33.065Z,116.43
2022-11-02T07:03:04.607Z,108.63
2022-11-02T07:05:34.566Z,90.67
2022-11-02T07:08:03.758Z,81.17
2022-11-02T07:10:32.931Z,79.90
2022-11-02T07:13:01.923Z,78.63
2022-11-02T07:15:31.059Z,75.27
2022-11-02T07:17:59.721Z,74.47
2022-11-02T07:20:30.614Z,72.63
2022-11-02T07:23:00.841Z,80.60
2022-11-02T07:25:31.984Z,73.87
2022-11-02T07:28:01.579Z,60.10
2022-11-02T07:30:30.869Z,56.73
2022-11-02T07:33:00.102Z,64.37
2022-11-02T07:35:30.203Z,85.60
2022-11-02T07:38:00.959Z,83.27
2022-11-02T07:40:30.497Z,81.23
2022-11-02T07:42:59.690Z,69.83
2022-11-02T07:45:29.359Z,69.90
2022-11-02T07:47:58.239Z,64.57
2022-11-02T07:50:28.681Z,64.73
2022-11-02T07:53:00.456Z,60.57
2022-11-02T07:55:31.603Z,64.40
2022-11-02T07:58:01.747Z,58.83
2022-11-02T08:00:32.559Z,72.40
2022-11-02T08:03:03.997Z,74.70
2022-11-02T08:05:35.493Z,72.53
2022-11-02T08:08:07.843Z,56.20
2022-11-02T08:10:40.375Z,58.60
2022-11-02T08:13:09.941Z,70.00
2022-11-02T08:15:39.211Z,66.20
2022-11-02T08:18:09.677Z,67.60
2022-11-02T08:20:38.632Z,60.13
2022-11-02T08:23:08.877Z,75.83
2022-11-02T08:25:38.163Z,72.83
2022-11-02T08:28:08.656Z,89.83
2022-11-02T08:30:38.734Z,89.03
2022-11-02T08:33:09.914Z,141.90
2022-11-02T08:35:38.797Z,106.80
2022-11-02T08:38:09.612Z,108.93
2022-11-02T08:40:39.018Z,101.33
2022-11-02T08:43:09.266Z,80.97
2022-11-02T08:46:12.495Z,74.67
2022-11-02T08:48:29.118Z,65.00
2022-11-02T08:50:57.741Z,64.30
2022-11-02T08:53:27.934Z,65.63
2022-11-02T08:55:59.500Z,63.97
2022-11-02T08:58:28.521Z,95.20
2022-11-02T09:00:57.572Z,90.93
2022-11-02T09:03:27.476Z,80.50
2022-11-02T09:05:59.895Z,95.77
2022-11-02T09:08:30.835Z,80.53
2022-11-02T09:11:02.186Z,74.07
2022-11-02T09:13:31.440Z,68.87
2022-11-02T09:16:01.250Z,69.40
2022-11-02T09:18:30.224Z,78.77
2022-11-02T09:21:02.313Z,96.77
2022-11-02T09:23:32.596Z,100.43
2022-11-02T09:26:02.443Z,121.87
2022-11-02T09:28:31.810Z,120.23
2022-11-02T09:31:00.619Z,113.73
2022-11-02T09:33:29.983Z,131.30
2022-11-02T09:36:02.956Z,127.73
2022-11-02T09:38:33.464Z,137.23
2022-11-02T09:41:13.964Z,144.90
2022-11-02T09:43:54.675Z,153.10
2022-11-02T09:46:27.348Z,139.00
2022-11-02T09:49:00.365Z,137.33
2022-11-02T09:51:35.150Z,139.80
2022-11-02T09:54:13.390Z,153.23
2022-11-02T09:56:47.233Z,153.93
2022-11-02T09:59:18.178Z,152.50
2022-11-02T10:02:04.245Z,143.83
2022-11-02T10:05:02.590Z,144.33
2022-11-02T10:08:00.002Z,147.97
2022-11-02T10:14:17.139Z,151.33
2022-11-02T10:16:50.949Z,144.30
2022-11-02T10:19:25.009Z,153.10
2022-11-02T10:22:00.042Z,158.77
2022-11-02T10:24:35.148Z,151.97
2022-11-02T10:27:13.079Z,155.07
2022-11-02T10:29:50.007Z,162.40
2022-11-02T10:32:27.220Z,166.40
2022-11-02T10:35:17.871Z,156.83
2022-11-02T10:38:03.184Z,161.67
2022-11-02T10:40:48.422Z,183.73
2022-11-02T10:43:30.961Z,133.73
2022-11-02T10:46:27.846Z,127.90
2022-11-02T10:49:06.842Z,132.63
2022-11-02T10:51:35.757Z,118.13
2022-11-02T10:56:34.605Z,125.30
2022-11-02T10:59:13.384Z,131.10
2022-11-02T11:01:48.441Z,124.40
2022-11-02T11:04:25.777Z,133.30
2022-11-02T11:06:55.883Z,124.13
2022-11-02T11:09:29.974Z,121.23
2022-11-02T11:12:01.102Z,134.97
2022-11-02T11:20:32.679Z,129.27
2022-11-02T11:23:21.649Z,129.33
2022-11-02T11:25:59.721Z,127.63
2022-11-02T11:28:31.080Z,121.93
2022-11-02T11:31:14.680Z,122.63
2022-11-02T11:33:47.837Z,130.77
2022-11-02T11:38:57.774Z,129.07
2022-11-02T11:41:26.824Z,138.27
2022-11-02T11:43:56.241Z,125.57
2022-11-02T11:46:25.279Z,130.20
2022-11-02T11:48:59.635Z,139.83
2022-11-02T11:51:32.772Z,148.50
2022-11-02T11:54:23.936Z,135.03
2022-11-02T11:56:54.615Z,143.40
2022-11-02T11:59:46.126Z,138.30
2022-11-02T12:02:25.298Z,135.93
2022-11-02T12:05:01.682Z,149.27
2022-11-02T12:08:02.685Z,125.87
2022-11-02T12:10:48.953Z,136.13
2022-11-02T12:13:29.693Z,131.63
2022-11-02T12:16:14.810Z,136.23
2022-11-02T12:19:00.456Z,143.30
2022-11-02T12:21:42.440Z,131.83
2022-11-02T12:24:37.892Z,123.67
2022-11-02T12:27:22.019Z,133.40
2022-11-02T12:30:05.320Z,122.83
2022-11-02T12:32:50.273Z,136.43
2022-11-02T12:35:36.656Z,136.93
2022-11-02T12:38:37.403Z,148.93
2022-11-02T12:41:09.372Z,132.57
2022-11-02T12:43:43.781Z,136.43
2022-11-02T12:46:38.503Z,129.87
2022-11-02T12:49:25.566Z,133.77
2022-11-02T12:52:02.985Z,142.57
2022-11-02T12:54:41.617Z,146.17
2022-11-02T12:57:14.016Z,154.23
2022-11-02T12:59:46.349Z,149.07
2022-11-02T13:02:19.922Z,161.30
2022-11-02T13:04:52.842Z,182.97
2022-11-02T13:07:29.629Z,158.83
2022-11-02T13:10:15.077Z,146.93
2022-11-02T13:12:45.888Z,159.93
2022-11-02T13:15:18.403Z,141.50
2022-11-02T13:17:50.870Z,137.90
2022-11-02T13:20:24.358Z,123.73
2022-11-02T13:23:09.219Z,142.17
2022-11-02T13:25:44.237Z,135.93
2022-11-02T13:28:15.967Z,140.20
2022-11-02T13:30:46.350Z,118.60
2022-11-02T13:33:20.498Z,115.30
2022-11-02T13:35:50.573Z,117.13
2022-11-02T13:38:31.834Z,117.87
2022-11-02T13:41:15.837Z,128.03
2022-11-02T13:44:16.072Z,133.43
2022-11-02T13:47:13.426Z,129.33
2022-11-02T13:49:44.263Z,128.37
2022-11-02T13:52:15.646Z,105.60
2022-11-02T13:54:49.610Z,98.20
2022-11-02T13:57:34.144Z,92.60
2022-11-02T14:00:04.538Z,91.77
2022-11-02T14:02:37.879Z,101.67
2022-11-02T14:05:07.486Z,94.80
2022-11-02T14:07:41.843Z,115.20
2022-11-02T14:10:17.946Z,113.20
2022-11-02T14:12:49.683Z,108.07
2022-11-02T14:15:54.307Z,107.37
2022-11-02T14:18:32.033Z,114.13
2022-11-02T14:21:21.525Z,119.00
2022-11-02T14:23:50.445Z,124.03
2022-11-02T14:26:56.073Z,127.07
2022-11-02T14:29:50.499Z,142.63
2022-11-02T14:32:27.747Z,139.47
2022-11-02T14:35:15.442Z,131.00
2022-11-02T14:38:11.101Z,131.27
2022-11-02T14:40:53.523Z,123.83
2022-11-02T14:43:50.353Z,137.00
2022-11-02T14:46:35.500Z,137.97
2022-11-02T14:49:06.330Z,123.30
2022-11-02T14:51:38.040Z,131.40
2022-11-02T14:54:19.185Z,115.37
2022-11-02T14:56:54.800Z,111.50
2022-11-02T14:59:28.527Z,109.37
2022-11-02T15:02:02.050Z,108.93
2022-11-02T15:04:33.124Z,102.87
2022-11-02T15:07:10.203Z,96.63
2022-11-02T15:09:59.502Z,93.73
2022-11-02T15:12:36.300Z,99.03
2022-11-02T15:15:34.681Z,89.03
2022-11-02T15:18:37.913Z,98.13
2022-11-02T15:21:27.332Z,96.40
2022-11-02T15:24:20.311Z,94.93
2022-11-02T15:26:54.250Z,91.73
2022-11-02T15:29:36.195Z,93.07
2022-11-02T15:32:09.587Z,81.30
2022-11-02T15:34:44.067Z,82.20
2022-11-02T15:37:19.352Z,68.83
2022-11-02T15:39:51.790Z,63.13
2022-11-02T15:42:30.658Z,62.03
2022-11-02T15:48:24.195Z,57.97
2022-11-02T15:51:03.084Z,60.20
2022-11-02T15:54:03.767Z,59.57
2022-11-02T15:56:48.049Z,64.27
2022-11-02T15:59:50.979Z,61.77
2022-11-02T16:02:25.474Z,63.30
2022-11-02T16:04:56.809Z,60.13
2022-11-02T16:07:33.234Z,58.83
2022-11-02T16:10:21.161Z,60.47
2022-11-02T16:12:58.515Z,59.20
2022-11-02T16:15:27.703Z,67.03
2022-11-02T16:17:56.657Z,122.65
2022-11-02T16:20:28.351Z,102.63
2022-11-02T16:23:01.117Z,93.43
2022-11-02T16:25:39.508Z,79.80
2022-11-02T16:28:23.930Z,75.10
2022-11-02T16:31:17.180Z,77.10
2022-11-02T16:33:50.419Z,86.43
2022-11-02T16:36:22.513Z,82.27
2022-11-02T16:39:00.449Z,94.47
2022-11-02T16:41:31.884Z,78.23
2022-11-02T16:44:11.548Z,95.87
2022-11-02T16:46:53.697Z,97.93
2022-11-02T16:49:24.322Z,101.30
2022-11-02T16:51:58.653Z,93.23
2022-11-02T16:54:40.941Z,96.57
2022-11-02T16:57:16.882Z,91.73
2022-11-02T16:59:53.514Z,98.13
2022-11-02T17:02:32.822Z,119.05
2022-11-02T17:05:06.228Z,106.47
2022-11-02T17:07:40.235Z,109.40
2022-11-02T17:10:21.311Z,98.13
2022-11-02T17:12:51.382Z,83.00
2022-11-02T17:15:25.608Z,76.00
2022-11-02T17:18:17.649Z,70.37
2022-11-02T17:20:46.261Z,63.17
2022-11-02T17:23:33.856Z,63.17
2022-11-02T17:26:30.008Z,55.70
2022-11-02T17:29:04.236Z,50.13
2022-11-02T17:31:38.567Z,54.53
2022-11-02T17:34:12.527Z,54.47
2022-11-02T17:36:44.442Z,55.23
2022-11-02T17:39:15.193Z,52.70
2022-11-02T17:42:03.693Z,47.33
2022-11-02T17:44:32.434Z,47.60
2022-11-02T17:47:01.946Z,55.57
2022-11-02T17:49:30.730Z,51.10
2022-11-02T17:51:59.626Z,46.87
2022-11-02T17:54:28.395Z,44.43
2022-11-02T17:56:58.571Z,43.67
2022-11-02T17:59:33.089Z,46.80
2022-11-02T18:02:03.881Z,51.87
2022-11-02T18:04:32.952Z,53.93
2022-11-02T18:07:01.949Z,54.83
2022-11-02T18:09:30.767Z,61.63
2022-11-02T18:12:00.992Z,58.47
2022-11-02T18:14:29.705Z,55.70
2022-11-02T18:16:58.427Z,63.27
2022-11-02T18:19:29.142Z,64.17
2022-11-02T18:21:58.044Z,82.23
2022-11-02T18:24:26.790Z,115.30
2022-11-02T18:26:55.899Z,92.53
2022-11-02T18:29:30.346Z,72.03
2022-11-02T18:32:01.879Z,66.43
2022-11-02T18:34:31.904Z,63.93
2022-11-02T18:37:01.308Z,63.57
2022-11-02T18:39:37.320Z,54.13
2022-11-02T18:42:09.027Z,44.50
2022-11-02T18:44:40.440Z,57.93
2022-11-02T18:47:10.103Z,158.10
2022-11-02T18:49:41.650Z,243.57
2022-11-02T18:52:10.848Z,79.70
2022-11-02T18:54:41.645Z,65.33
2022-11-02T18:57:13.419Z,65.63
2022-11-02T18:59:43.648Z,85.80
2022-11-02T19:02:13.074Z,96.97
2022-11-02T19:04:41.779Z,109.27
2022-11-02T19:07:28.722Z,107.77
2022-11-02T19:10:00.998Z,125.10
2022-11-02T19:12:34.086Z,113.43
2022-11-02T19:15:08.469Z,136.37
2022-11-02T19:17:39.986Z,117.33
2022-11-02T19:20:12.490Z,119.63
2022-11-02T19:22:41.142Z,104.30
2022-11-02T19:25:14.803Z,111.53
2022-11-02T19:27:47.001Z,115.40
2022-11-02T19:30:19.658Z,116.07
2022-11-02T19:32:48.339Z,120.60
2022-11-02T19:35:18.958Z,103.47
2022-11-02T19:37:51.541Z,113.90
2022-11-02T19:40:23.408Z,82.67
2022-11-02T19:42:52.984Z,89.83
2022-11-02T19:45:28.378Z,94.73
2022-11-02T19:48:03.832Z,106.47
2022-11-02T19:50:33.397Z,120.50
2022-11-02T19:53:03.352Z,109.90
2022-11-02T19:55:35.365Z,77.57
2022-11-02T19:58:06.289Z,109.43
2022-11-02T20:00:40.744Z,98.30
2022-11-02T20:03:09.638Z,91.40
2022-11-02T20:05:42.254Z,100.57
2022-11-02T20:08:11.974Z,92.10
2022-11-02T20:10:40.718Z,109.17
2022-11-02T20:13:12.538Z,102.33
2022-11-02T20:15:48.213Z,95.30
2022-11-02T20:18:19.747Z,99.30
2022-11-02T20:20:52.524Z,99.73
2022-11-02T20:23:23.813Z,100.10
2022-11-02T20:25:54.217Z,106.17
2022-11-02T20:28:27.093Z,93.23
2022-11-02T20:31:03.476Z,96.40
2022-11-02T20:33:35.769Z,71.80
2022-11-02T20:36:11.815Z,97.53
2022-11-02T20:38:47.472Z,90.63
2022-11-02T20:41:22.211Z,95.17
2022-11-02T20:43:57.226Z,89.23
2022-11-02T20:46:41.868Z,91.83
2022-11-02T20:49:21.738Z,106.80
2022-11-02T20:52:02.628Z,92.77
2022-11-02T20:54:35.595Z,105.30
2022-11-02T20:57:12.225Z,113.47
2022-11-02T20:59:46.505Z,115.87
2022-11-02T21:02:24.281Z,104.73
2022-11-02T21:04:56.672Z,114.03
2022-11-02T21:07:28.903Z,118.10
2022-11-02T21:10:00.429Z,111.37
2022-11-02T21:12:51.236Z,115.67
2022-11-02T21:15:28.746Z,107.83
2022-11-02T21:18:01.254Z,106.30
2022-11-02T21:20:34.204Z,110.97
2022-11-02T21:23:04.274Z,103.67
2022-11-02T21:25:33.973Z,108.30
2022-11-02T21:28:03.077Z,98.10
2022-11-02T21:30:32.317Z,99.77
2022-11-02T21:33:02.912Z,97.93
2022-11-02T21:35:35.213Z,112.17
2022-11-02T21:38:07.951Z,102.90
2022-11-02T21:40:41.415Z,95.50
2022-11-02T21:43:14.703Z,91.30
2022-11-02T21:45:56.878Z,90.43
2022-11-02T21:48:34.050Z,90.17
2022-11-02T21:51:10.219Z,85.33
2022-11-02T21:53:41.730Z,84.33
2022-11-02T21:56:13.761Z,88.53
2022-11-02T21:58:47.810Z,79.27
2022-11-02T22:01:36.523Z,86.13
2022-11-02T22:04:08.200Z,76.27
2022-11-02T22:06:43.847Z,81.90
2022-11-02T22:09:15.866Z,74.37
2022-11-02T22:11:45.370Z,70.43
2022-11-02T22:14:16.043Z,69.63
2022-11-02T22:16:48.366Z,59.60
2022-11-02T22:19:19.113Z,60.63
2022-11-02T22:21:50.394Z,49.83
2022-11-02T22:24:23.477Z,45.83
2022-11-02T22:26:56.055Z,44.20
2022-11-02T22:29:28.500Z,45.33
2022-11-02T22:32:02.722Z,50.87
2022-11-02T22:34:35.637Z,69.00
2022-11-02T22:37:18.072Z,68.27
2022-11-02T22:39:49.284Z,46.67
2022-11-02T22:42:17.980Z,41.00
2022-11-02T22:44:50.786Z,38.97
2022-11-02T22:47:22.788Z,38.47
2022-11-02T22:49:55.036Z,46.00
2022-11-02T22:52:27.284Z,51.10
2022-11-02T22:55:00.448Z,70.80
2022-11-02T22:57:31.453Z,53.00
2022-11-02T23:00:01.874Z,49.27
2022-11-02T23:02:31.081Z,76.47
2022-11-02T23:05:02.216Z,67.63
2022-11-02T23:07:32.526Z,76.83
2022-11-02T23:10:25.302Z,83.03
2022-11-02T23:12:55.078Z,93.03
2022-11-02T23:15:26.232Z,84.80
2022-11-02T23:17:56.205Z,121.63
2022-11-02T23:20:28.298Z,121.40
2022-11-02T23:23:25.513Z,132.07
2022-11-02T23:25:57.661Z,51.37
2022-11-02T23:28:45.684Z,51.37
2022-11-02T23:31:33.418Z,56.43
2022-11-02T23:34:03.725Z,64.10
2022-11-02T23:36:35.129Z,74.30
2022-11-02T23:39:20.924Z,65.40
2022-11-02T23:41:50.612Z,65.90
2022-11-02T23:44:19.384Z,65.17
2022-11-02T23:46:51.899Z,66.40
2022-11-02T23:49:22.128Z,63.17
2022-11-02T23:52:10.677Z,67.70
2022-11-02T23:54:57.365Z,55.00
2022-11-02T23:57:26.203Z,61.30
2022-11-02T23:59:55.908Z,59.07
